Time;durP1;ratioP1;P1;durP2;ratioP2;P2;SDS_P1;SDS_P2;PMS_P1;PMS_P2;Temp;Humidity;BMP_temperature;BMP_pressure;BME280_temperature;BME280_humidity;BME280_pressure;Samples;Min_cycle;Max_cycle;Signal;HPM_P1;HPM_P2
2020/12/30 00:00:29;;;;;;;1.40;1.00;;;3.60;99.90;;;;;;4993105;28;20287;-76
2020/12/30 00:02:55;;;;;;;1.67;1.02;;;3.60;99.90;;;;;;4997133;28;20195;-75
2020/12/30 00:05:21;;;;;;;1.70;1.00;;;3.60;99.90;;;;;;4999006;28;20272;-77
2020/12/30 00:07:47;;;;;;;1.20;0.95;;;3.50;99.90;;;;;;4997675;28;20673;-76
2020/12/30 00:10:17;;;;;;;1.25;1.00;;;3.60;99.90;;;;;;4999118;28;20206;-76
2020/12/30 00:12:43;;;;;;;1.10;1.00;;;3.50;99.90;;;;;;5000103;28;20657;-75
2020/12/30 00:15:10;;;;;;;1.45;1.00;;;3.50;99.90;;;;;;4992946;28;20265;-75
2020/12/30 00:17:40;;;;;;;1.63;1.10;;;3.50;99.90;;;;;;4997724;28;20203;-76
2020/12/30 00:20:07;;;;;;;1.15;1.02;;;3.50;99.90;;;;;;4994091;28;20195;-75
2020/12/30 00:22:33;;;;;;;1.42;1.00;;;3.60;99.90;;;;;;4999689;28;20541;-75
2020/12/30 00:24:59;;;;;;;1.10;1.00;;;3.50;99.90;;;;;;4997924;28;20191;-76
2020/12/30 00:27:24;;;;;;;1.50;1.20;;;3.50;99.90;;;;;;5000759;28;20216;-75
2020/12/30 00:29:50;;;;;;;3.50;0.98;;;3.50;99.90;;;;;;4995647;28;20649;-76
2020/12/30 00:32:16;;;;;;;1.60;1.05;;;3.50;99.90;;;;;;4998312;28;20664;-76
2020/12/30 00:34:42;;;;;;;2.17;1.13;;;3.50;99.90;;;;;;4998575;28;20191;-75
2020/12/30 00:37:11;;;;;;;1.40;1.30;;;3.40;99.90;;;;;;4997394;28;20202;-75
2020/12/30 00:39:37;;;;;;;1.30;1.20;;;3.40;99.90;;;;;;4997742;28;20195;-78
2020/12/30 00:42:03;;;;;;;1.20;1.10;;;3.40;99.90;;;;;;4997170;28;20199;-77
2020/12/30 00:44:29;;;;;;;1.85;1.30;;;3.40;99.90;;;;;;4991892;28;20199;-76
2020/12/30 00:46:56;;;;;;;1.27;1.10;;;3.40;99.90;;;;;;5000843;28;20260;-76
2020/12/30 00:49:22;;;;;;;2.30;1.30;;;3.40;99.90;;;;;;4994603;28;20200;-76
2020/12/30 00:51:55;;;;;;;1.02;1.00;;;3.40;99.90;;;;;;4997906;28;20290;-75
2020/12/30 00:54:24;;;;;;;1.10;1.00;;;3.40;99.90;;;;;;4999189;28;20210;-74
2020/12/30 00:56:51;;;;;;;1.55;1.20;;;3.40;99.90;;;;;;4993902;28;20199;-79
2020/12/30 00:59:18;;;;;;;1.45;1.33;;;3.40;99.90;;;;;;4992264;28;20264;-75
2020/12/30 01:01:49;;;;;;;1.20;1.10;;;3.40;99.90;;;;;;4996801;28;20207;-75
2020/12/30 01:04:15;;;;;;;1.55;1.38;;;3.40;99.90;;;;;;4993898;28;20240;-76
2020/12/30 01:06:41;;;;;;;1.50;1.20;;;3.40;99.90;;;;;;4994151;28;20234;-77
2020/12/30 01:09:07;;;;;;;1.95;1.30;;;3.40;99.90;;;;;;4998858;28;20200;-75
2020/12/30 01:11:33;;;;;;;2.17;1.30;;;3.40;99.90;;;;;;4998145;28;20210;-75
2020/12/30 01:13:59;;;;;;;1.10;1.00;;;3.40;99.90;;;;;;4995988;28;20716;-76
2020/12/30 01:16:25;;;;;;;4.18;1.30;;;3.40;99.90;;;;;;4998826;28;20200;-77
2020/12/30 01:18:51;;;;;;;1.40;1.10;;;3.30;99.90;;;;;;4996645;28;20202;-78
2020/12/30 01:21:17;;;;;;;1.30;1.20;;;3.30;99.90;;;;;;4997475;28;20203;-76
2020/12/30 01:23:43;;;;;;;1.38;1.27;;;3.30;99.90;;;;;;4995602;28;20953;-74
2020/12/30 01:26:12;;;;;;;1.92;1.17;;;3.30;99.90;;;;;;4996230;28;20207;-75
2020/12/30 01:28:38;;;;;;;1.27;1.05;;;3.30;99.90;;;;;;4992845;28;20700;-77
2020/12/30 01:31:04;;;;;;;1.48;1.30;;;3.40;99.90;;;;;;4997505;28;20211;-74
2020/12/30 01:33:30;;;;;;;1.20;1.10;;;3.50;99.90;;;;;;4995820;28;20206;-76
2020/12/30 01:35:57;;;;;;;4.38;1.20;;;3.50;99.90;;;;;;4995347;28;20245;-75
2020/12/30 01:38:22;;;;;;;1.45;1.20;;;3.40;99.90;;;;;;4993461;28;20206;-75
2020/12/30 01:40:56;;;;;;;1.52;1.13;;;3.40;99.90;;;;;;4995928;28;20199;-74
2020/12/30 01:43:22;;;;;;;1.38;1.27;;;3.40;99.90;;;;;;4998627;28;20286;-78
2020/12/30 01:45:52;;;;;;;1.85;1.23;;;3.50;99.90;;;;;;4998015;28;20290;-76
2020/12/30 01:48:22;;;;;;;1.10;1.00;;;3.50;99.90;;;;;;4994422;28;20214;-75
2020/12/30 01:50:48;;;;;;;2.00;1.20;;;3.40;99.90;;;;;;4992291;28;20203;-77
2020/12/30 01:53:14;;;;;;;1.65;1.27;;;3.40;99.90;;;;;;4999975;28;20237;-76
2020/12/30 01:55:41;;;;;;;2.10;1.30;;;3.40;99.90;;;;;;4999139;28;20210;-75
2020/12/30 01:58:11;;;;;;;1.50;1.33;;;3.30;99.90;;;;;;4997222;28;20202;-76
2020/12/30 02:00:39;;;;;;;1.20;1.08;;;3.30;99.90;;;;;;4996625;28;20205;-79
2020/12/30 02:03:08;;;;;;;1.90;1.20;;;3.40;99.90;;;;;;4984706;23;20277;-70
2020/12/30 02:05:35;;;;;;;1.15;1.00;;;3.40;99.90;;;;;;4989310;28;20207;-69
2020/12/30 02:08:03;;;;;;;2.35;1.08;;;3.40;99.90;;;;;;4977515;28;20239;-70
2020/12/30 02:10:29;;;;;;;1.20;1.00;;;3.40;99.90;;;;;;4969434;28;20196;-70
2020/12/30 02:12:56;;;;;;;1.25;1.05;;;3.40;99.90;;;;;;4972031;28;20203;-68
2020/12/30 02:15:22;;;;;;;1.20;1.10;;;3.40;99.90;;;;;;4974626;28;20192;-69
2020/12/30 02:17:48;;;;;;;1.05;0.95;;;3.40;99.90;;;;;;4975575;28;20319;-69
2020/12/30 02:20:14;;;;;;;0.90;0.90;;;3.40;99.90;;;;;;4977618;28;20274;-69
2020/12/30 02:22:41;;;;;;;1.15;1.00;;;3.40;99.90;;;;;;4978031;28;20214;-68
2020/12/30 02:25:07;;;;;;;1.00;1.00;;;3.30;99.90;;;;;;4970763;28;20257;-69
2020/12/30 02:27:33;;;;;;;1.40;0.88;;;3.30;99.90;;;;;;4972167;28;20203;-69
2020/12/30 02:29:58;;;;;;;0.90;0.90;;;3.40;99.90;;;;;;4975620;28;20191;-69
2020/12/30 02:32:24;;;;;;;1.45;1.08;;;3.30;99.90;;;;;;4972404;28;20227;-69
2020/12/30 02:34:50;;;;;;;1.30;0.95;;;3.20;99.90;;;;;;4972970;28;20231;-70
2020/12/30 02:37:15;;;;;;;0.98;0.88;;;3.20;99.90;;;;;;4971515;28;20302;-69
2020/12/30 02:39:41;;;;;;;1.25;1.15;;;3.20;99.90;;;;;;4972611;28;20443;-69
2020/12/30 02:42:06;;;;;;;1.10;1.00;;;3.10;99.90;;;;;;4973813;28;20206;-69
2020/12/30 02:44:32;;;;;;;0.90;0.90;;;3.20;99.90;;;;;;4975658;28;20199;-70
2020/12/30 02:46:58;;;;;;;1.48;1.10;;;3.20;99.90;;;;;;4981016;28;20195;-70
2020/12/30 02:49:23;;;;;;;0.90;0.90;;;3.20;99.90;;;;;;4991377;28;20274;-70
2020/12/30 02:51:49;;;;;;;1.10;1.00;;;3.20;99.90;;;;;;4978086;28;20911;-70
2020/12/30 02:54:15;;;;;;;2.35;1.10;;;3.20;99.90;;;;;;4978885;28;20697;-70
2020/12/30 02:56:40;;;;;;;1.27;1.05;;;3.10;99.90;;;;;;4979133;28;20231;-68
2020/12/30 02:59:06;;;;;;;1.20;0.95;;;3.20;99.90;;;;;;4979253;28;20239;-70
2020/12/30 03:01:31;;;;;;;1.35;0.95;;;3.20;99.90;;;;;;4976615;28;20840;-69
2020/12/30 03:03:57;;;;;;;0.90;0.90;;;3.20;99.90;;;;;;4978750;28;21074;-70
2020/12/30 03:06:24;;;;;;;1.27;1.02;;;3.20;99.90;;;;;;4978852;28;20716;-70
2020/12/30 03:08:50;;;;;;;1.10;1.00;;;3.20;99.90;;;;;;4978555;28;21135;-70
2020/12/30 03:11:16;;;;;;;1.00;0.90;;;3.20;99.90;;;;;;4980597;28;20202;-69
2020/12/30 03:13:42;;;;;;;1.73;1.00;;;3.20;99.90;;;;;;4980051;28;20908;-70
2020/12/30 03:16:08;;;;;;;1.33;1.05;;;3.20;99.90;;;;;;4978225;28;20195;-69
2020/12/30 03:18:33;;;;;;;1.00;0.90;;;3.30;99.90;;;;;;4975184;28;20203;-69
2020/12/30 03:20:59;;;;;;;1.20;0.95;;;3.30;99.90;;;;;;4976247;28;20196;-69
2020/12/30 03:23:25;;;;;;;1.30;1.10;;;3.20;99.90;;;;;;4978245;28;20219;-69
2020/12/30 03:25:51;;;;;;;1.30;1.20;;;3.30;99.90;;;;;;4981389;28;20454;-69
2020/12/30 03:28:17;;;;;;;1.40;1.20;;;3.20;99.90;;;;;;4983680;28;20203;-70
2020/12/30 03:30:42;;;;;;;1.20;1.10;;;3.20;99.90;;;;;;4981657;28;20203;-69
2020/12/30 03:33:08;;;;;;;1.40;1.20;;;3.20;99.90;;;;;;4983360;28;20260;-69
2020/12/30 03:35:34;;;;;;;1.20;1.10;;;3.20;99.90;;;;;;4983125;28;20294;-69
2020/12/30 03:37:59;;;;;;;1.13;1.02;;;3.20;99.90;;;;;;4981793;28;20224;-69
2020/12/30 03:40:25;;;;;;;1.50;1.10;;;3.20;99.90;;;;;;4982518;28;20618;-69
2020/12/30 03:42:51;;;;;;;1.50;1.27;;;3.10;99.90;;;;;;4981707;28;20235;-69
2020/12/30 03:45:16;;;;;;;3.38;1.40;;;3.10;99.90;;;;;;4983516;28;20611;-69
2020/12/30 03:47:42;;;;;;;2.65;1.30;;;3.10;99.90;;;;;;4977552;28;21616;-69
2020/12/30 03:50:08;;;;;;;6.35;1.48;;;3.00;99.90;;;;;;4985336;28;20545;-69
2020/12/30 03:52:34;;;;;;;1.55;1.20;;;3.00;99.90;;;;;;4980163;28;20203;-70
2020/12/30 03:55:00;;;;;;;2.00;1.38;;;3.00;99.90;;;;;;4984030;28;20699;-69
2020/12/30 03:57:25;;;;;;;2.45;1.40;;;3.00;99.90;;;;;;4978290;28;20212;-69
2020/12/30 03:59:51;;;;;;;3.90;1.67;;;3.10;99.90;;;;;;4980967;28;20283;-69
2020/12/30 04:02:17;;;;;;;3.03;1.30;;;3.10;99.90;;;;;;4980047;28;20323;-69
2020/12/30 04:04:43;;;;;;;1.88;1.40;;;3.10;99.90;;;;;;4979963;28;20204;-69
2020/12/30 04:07:10;;;;;;;1.95;1.38;;;3.10;99.90;;;;;;4981918;28;20195;-69
2020/12/30 04:09:36;;;;;;;2.92;1.60;;;3.10;99.90;;;;;;4982093;28;20282;-68
2020/12/30 04:12:02;;;;;;;1.60;1.35;;;3.00;99.90;;;;;;4979654;28;20685;-69
2020/12/30 04:14:28;;;;;;;3.92;1.70;;;3.10;99.90;;;;;;4980777;28;20239;-69
2020/12/30 04:16:55;;;;;;;2.28;1.55;;;3.00;99.90;;;;;;4982743;28;20591;-68
2020/12/30 04:19:21;;;;;;;2.95;1.30;;;3.00;99.90;;;;;;4979377;28;20200;-69
2020/12/30 04:21:46;;;;;;;3.00;1.50;;;3.10;99.90;;;;;;4977591;28;20196;-69
2020/12/30 04:24:12;;;;;;;1.55;1.30;;;3.00;99.90;;;;;;4979831;28;20196;-69
2020/12/30 04:26:38;;;;;;;2.08;1.35;;;3.10;99.90;;;;;;4980436;28;20199;-69
2020/12/30 04:29:04;;;;;;;2.15;1.52;;;3.10;99.90;;;;;;4980618;28;20207;-70
2020/12/30 04:31:29;;;;;;;1.50;1.20;;;3.10;99.90;;;;;;4980904;28;20211;-70
2020/12/30 04:33:55;;;;;;;2.15;1.35;;;3.10;99.90;;;;;;4979114;28;20224;-69
2020/12/30 04:36:21;;;;;;;1.60;1.30;;;3.00;99.90;;;;;;4979235;28;20253;-70
2020/12/30 04:38:46;;;;;;;1.42;1.25;;;3.00;99.90;;;;;;4979616;28;20202;-69
2020/12/30 04:41:14;;;;;;;4.60;1.25;;;3.00;99.90;;;;;;4979356;28;20948;-69
2020/12/30 04:43:43;;;;;;;1.50;1.30;;;3.00;99.90;;;;;;4978264;28;20203;-70
2020/12/30 04:46:12;;;;;;;1.63;1.30;;;3.00;99.90;;;;;;4982723;28;20681;-69
2020/12/30 04:48:39;;;;;;;1.42;1.10;;;3.00;99.90;;;;;;4978972;28;20207;-69
2020/12/30 04:51:05;;;;;;;1.38;1.17;;;2.90;99.90;;;;;;4979119;28;20192;-70
2020/12/30 04:53:33;;;;;;;2.28;1.23;;;3.00;99.90;;;;;;4977785;28;20307;-69
2020/12/30 04:56:00;;;;;;;1.50;1.20;;;3.00;99.90;;;;;;4977675;28;20675;-69
2020/12/30 04:58:28;;;;;;;1.30;1.00;;;2.90;99.90;;;;;;4980175;28;20310;-69
2020/12/30 05:00:53;;;;;;;1.60;1.10;;;2.90;99.90;;;;;;4978296;28;21087;-70
2020/12/30 05:03:27;;;;;;;1.00;0.90;;;2.90;99.90;;;;;;4980134;28;20223;-69
2020/12/30 05:05:54;;;;;;;1.95;1.10;;;2.90;99.90;;;;;;4978711;28;20204;-70
2020/12/30 05:08:20;;;;;;;1.10;1.00;;;2.90;99.90;;;;;;4981172;28;20203;-70
2020/12/30 05:10:46;;;;;;;0.95;0.90;;;2.90;99.90;;;;;;4977176;28;20212;-70
2020/12/30 05:13:12;;;;;;;1.10;0.90;;;2.90;99.90;;;;;;4980592;28;20218;-69
2020/12/30 05:15:39;;;;;;;0.90;0.90;;;2.90;99.90;;;;;;4977029;28;20733;-69
2020/12/30 05:18:06;;;;;;;1.02;0.93;;;2.90;99.90;;;;;;4978441;28;20637;-68
2020/12/30 05:20:36;;;;;;;1.65;1.35;;;2.90;99.90;;;;;;4979833;28;20559;-69
2020/12/30 05:23:05;;;;;;;1.23;1.10;;;2.90;99.90;;;;;;4979932;28;20307;-69
2020/12/30 05:25:34;;;;;;;1.50;1.00;;;2.90;99.90;;;;;;4975647;28;20211;-68
2020/12/30 05:28:03;;;;;;;1.05;0.95;;;2.90;99.90;;;;;;4972246;28;20213;-69
2020/12/30 05:30:29;;;;;;;1.08;1.00;;;2.90;99.90;;;;;;4972086;28;20200;-69
2020/12/30 05:32:55;;;;;;;0.85;0.85;;;2.80;99.90;;;;;;4975468;28;20208;-69
2020/12/30 05:35:21;;;;;;;1.10;1.00;;;2.70;99.90;;;;;;4976650;28;20226;-69
2020/12/30 05:37:47;;;;;;;2.03;1.05;;;2.70;99.90;;;;;;4976946;28;20530;-68
2020/12/30 05:40:24;;;;;;;1.00;0.90;;;2.70;99.90;;;;;;4974639;28;20195;-68
2020/12/30 05:42:51;;;;;;;1.13;1.00;;;2.60;99.90;;;;;;4976222;28;20670;-69
2020/12/30 05:45:22;;;;;;;4.43;0.90;;;2.60;99.90;;;;;;4977489;28;20204;-69
2020/12/30 05:47:51;;;;;;;1.50;1.00;;;2.60;99.90;;;;;;4973616;28;20215;-69
2020/12/30 05:50:24;;;;;;;1.50;0.93;;;2.70;99.90;;;;;;4980683;28;20201;-69
2020/12/30 05:52:53;;;;;;;1.30;1.00;;;2.60;99.90;;;;;;4974577;28;20215;-69
2020/12/30 05:55:26;;;;;;;1.05;0.95;;;2.60;99.90;;;;;;4979208;28;20879;-69
2020/12/30 05:57:53;;;;;;;0.95;0.90;;;2.50;99.90;;;;;;4979595;28;20533;-69
2020/12/30 06:00:19;;;;;;;1.50;1.10;;;2.40;99.90;;;;;;4977668;28;20246;-70
2020/12/30 06:02:47;;;;;;;1.05;0.98;;;2.40;99.90;;;;;;4978913;28;20990;-69
2020/12/30 06:05:20;;;;;;;0.93;0.90;;;2.40;99.90;;;;;;4978838;28;20200;-69
2020/12/30 06:07:51;;;;;;;1.85;1.10;;;2.40;99.90;;;;;;4979266;28;20207;-69
2020/12/30 06:10:19;;;;;;;2.13;1.60;;;2.40;99.90;;;;;;4974556;28;20200;-69
2020/12/30 06:12:50;;;;;;;1.55;1.10;;;2.40;99.90;;;;;;4978883;28;20330;-70
2020/12/30 06:15:19;;;;;;;1.63;1.10;;;2.40;99.90;;;;;;4995651;28;20199;-70
2020/12/30 06:17:58;;;;;;;1.33;1.20;;;2.40;99.90;;;;;;4977412;28;20291;-69
2020/12/30 06:20:31;;;;;;;1.20;1.10;;;2.40;99.90;;;;;;4974879;28;20191;-69
2020/12/30 06:23:01;;;;;;;1.25;1.15;;;2.40;99.90;;;;;;4977151;28;20282;-69
2020/12/30 06:25:29;;;;;;;1.20;1.10;;;2.40;99.90;;;;;;4979030;28;20246;-70
2020/12/30 06:27:55;;;;;;;1.95;1.20;;;2.40;99.90;;;;;;4976297;28;20199;-70
2020/12/30 06:30:22;;;;;;;1.13;1.02;;;2.40;99.90;;;;;;4977738;28;20235;-70
2020/12/30 06:32:49;;;;;;;1.42;0.90;;;2.30;99.90;;;;;;4976505;28;21051;-69
2020/12/30 06:35:24;;;;;;;0.93;0.93;;;2.30;99.90;;;;;;4981553;28;20203;-70
2020/12/30 06:37:50;;;;;;;1.02;0.93;;;2.30;99.90;;;;;;4979309;28;20687;-69
2020/12/30 06:40:27;;;;;;;1.30;1.00;;;2.30;99.90;;;;;;4975936;28;20192;-69
2020/12/30 06:42:56;;;;;;;1.13;1.02;;;2.30;99.90;;;;;;4978044;28;20199;-69
2020/12/30 06:45:49;;;;;;;1.20;1.00;;;2.30;99.90;;;;;;4980254;28;20945;-70
2020/12/30 06:48:15;;;;;;;1.83;1.10;;;2.30;99.90;;;;;;4977680;28;20207;-70
2020/12/30 06:50:41;;;;;;;1.17;1.08;;;2.40;99.90;;;;;;4977445;28;20195;-69
2020/12/30 06:53:22;;;;;;;1.27;1.17;;;2.40;99.90;;;;;;4977945;28;20208;-70
2020/12/30 06:55:47;;;;;;;2.78;1.13;;;2.40;99.90;;;;;;4977044;28;20694;-69
2020/12/30 06:58:42;;;;;;;1.30;1.20;;;2.30;99.90;;;;;;4976038;28;20250;-69
2020/12/30 07:01:09;;;;;;;1.88;1.10;;;2.40;99.90;;;;;;4979305;28;20196;-69
2020/12/30 07:03:35;;;;;;;1.23;1.10;;;2.40;99.90;;;;;;4973098;28;20289;-69
2020/12/30 07:06:33;;;;;;;1.20;1.10;;;2.30;99.90;;;;;;4975085;28;22576;-69
2020/12/30 07:09:05;;;;;;;1.38;1.08;;;2.30;99.90;;;;;;4990147;28;20226;-69
2020/12/30 07:11:49;;;;;;;2.63;1.10;;;2.30;99.90;;;;;;4978311;28;20204;-69
2020/12/30 07:14:15;;;;;;;0.75;0.75;;;2.20;99.90;;;;;;4974859;28;20208;-70
2020/12/30 07:16:44;;;;;;;1.20;1.10;;;2.30;99.90;;;;;;4977065;28;20736;-69
2020/12/30 07:19:18;;;;;;;0.93;0.90;;;2.30;99.90;;;;;;4976895;28;20192;-69
2020/12/30 07:22:04;;;;;;;1.85;1.27;;;2.30;99.90;;;;;;4971819;28;20664;-70
2020/12/30 07:24:53;;;;;;;1.10;1.00;;;2.40;99.90;;;;;;4991618;28;20208;-69
2020/12/30 07:27:21;;;;;;;1.10;1.00;;;2.30;99.90;;;;;;4977326;28;20196;-69
2020/12/30 07:29:48;;;;;;;1.65;1.20;;;2.30;99.90;;;;;;4980623;28;20226;-69
2020/12/30 07:32:15;;;;;;;3.67;2.22;;;2.30;99.90;;;;;;4974213;28;20203;-69
2020/12/30 07:34:43;;;;;;;3.15;2.00;;;2.30;99.90;;;;;;4979297;28;20600;-70
2020/12/30 07:37:10;;;;;;;1.35;1.25;;;2.30;99.90;;;;;;4979027;28;20200;-70
2020/12/30 07:39:38;;;;;;;1.35;1.25;;;2.30;99.90;;;;;;4995757;28;20224;-69
2020/12/30 07:42:10;;;;;;;1.08;1.02;;;2.30;99.90;;;;;;4978803;28;20196;-69
2020/12/30 07:44:51;;;;;;;1.30;1.20;;;2.30;99.90;;;;;;4979208;28;20242;-69
2020/12/30 07:47:18;;;;;;;2.83;1.73;;;2.40;99.90;;;;;;4980750;28;20203;-69
2020/12/30 07:49:44;;;;;;;1.40;1.05;;;2.40;99.90;;;;;;4978291;28;20239;-69
2020/12/30 07:52:10;;;;;;;1.67;1.20;;;2.30;99.90;;;;;;4977428;28;20236;-69
2020/12/30 07:54:36;;;;;;;1.20;1.05;;;2.30;99.90;;;;;;4968836;28;20270;-70
2020/12/30 07:57:04;;;;;;;1.10;1.00;;;2.20;99.90;;;;;;4971241;28;20199;-69
2020/12/30 07:59:31;;;;;;;1.40;1.02;;;2.20;99.90;;;;;;4972570;28;20235;-68
2020/12/30 08:01:58;;;;;;;1.77;1.27;;;2.20;99.90;;;;;;4968773;28;20211;-69
2020/12/30 08:04:25;;;;;;;1.55;1.00;;;2.20;99.90;;;;;;4974292;28;20196;-69
2020/12/30 08:06:51;;;;;;;1.20;1.10;;;2.30;99.90;;;;;;4967529;28;20208;-69
2020/12/30 08:09:17;;;;;;;1.30;1.05;;;2.20;99.90;;;;;;4972021;28;20211;-68
2020/12/30 08:11:52;;;;;;;1.33;1.10;;;2.20;99.90;;;;;;4977179;28;20902;-69
2020/12/30 08:14:19;;;;;;;1.95;1.20;;;2.20;99.90;;;;;;4969761;28;20258;-69
2020/12/30 08:16:57;;;;;;;1.35;1.08;;;2.20;99.90;;;;;;4971968;28;20192;-69
2020/12/30 08:19:50;;;;;;;1.10;1.00;;;2.20;99.90;;;;;;4969649;28;20208;-69
2020/12/30 08:22:20;;;;;;;1.98;1.42;;;2.20;99.90;;;;;;4964853;28;20216;-69
2020/12/30 08:24:50;;;;;;;1.10;1.00;;;2.20;99.90;;;;;;4967956;28;20307;-69
2020/12/30 08:27:20;;;;;;;2.30;1.50;;;2.20;99.90;;;;;;4972742;28;20200;-68
2020/12/30 08:29:47;;;;;;;3.35;1.50;;;2.10;99.90;;;;;;4966664;28;20196;-68
2020/12/30 08:32:22;;;;;;;3.33;2.10;;;2.10;99.90;;;;;;4975204;28;20734;-69
2020/12/30 08:34:53;;;;;;;3.47;2.35;;;2.10;99.90;;;;;;4973549;28;20215;-68
2020/12/30 08:37:29;;;;;;;3.13;1.92;;;2.10;99.90;;;;;;4973532;28;20283;-68
2020/12/30 08:40:03;;;;;;;2.60;2.00;;;2.10;99.90;;;;;;4971700;28;20546;-68
2020/12/30 08:42:47;;;;;;;1.52;1.38;;;2.10;99.90;;;;;;4968895;28;20729;-69
2020/12/30 08:45:17;;;;;;;2.17;1.27;;;2.00;99.90;;;;;;4974899;28;20203;-68
2020/12/30 08:47:45;;;;;;;1.63;1.50;;;2.00;99.90;;;;;;4967525;28;21090;-68
2020/12/30 08:50:14;;;;;;;3.53;1.92;;;2.00;99.90;;;;;;4969930;28;20199;-69
2020/12/30 08:52:44;;;;;;;4.75;1.90;;;2.00;99.90;;;;;;4969259;28;20192;-68
2020/12/30 08:55:10;;;;;;;2.00;1.25;;;2.00;99.90;;;;;;4973711;28;20268;-68
2020/12/30 08:57:42;;;;;;;1.60;1.20;;;2.00;99.90;;;;;;4971674;28;20199;-69
2020/12/30 09:00:19;;;;;;;2.60;1.50;;;2.00;99.90;;;;;;4973148;28;20226;-69
2020/12/30 09:02:46;;;;;;;1.20;1.10;;;2.00;99.90;;;;;;4977070;28;20226;-69
2020/12/30 09:05:12;;;;;;;4.05;1.67;;;2.10;99.90;;;;;;4971876;28;20262;-69
2020/12/30 09:07:39;;;;;;;3.28;2.25;;;2.00;99.90;;;;;;4970852;28;20323;-70
2020/12/30 09:10:08;;;;;;;2.60;1.58;;;2.00;99.90;;;;;;4971645;28;20188;-69
2020/12/30 09:12:34;;;;;;;2.25;1.70;;;2.00;99.90;;;;;;4971397;28;20230;-70
2020/12/30 09:15:00;;;;;;;1.40;1.30;;;1.90;99.90;;;;;;4970868;28;20235;-69
2020/12/30 09:17:26;;;;;;;4.55;2.83;;;2.00;99.90;;;;;;4973398;28;20242;-69
2020/12/30 09:20:11;;;;;;;2.05;1.60;;;1.90;99.90;;;;;;4977325;28;20306;-70
2020/12/30 09:22:37;;;;;;;3.97;2.50;;;1.90;99.90;;;;;;4973574;28;20223;-69
2020/12/30 09:25:04;;;;;;;6.93;4.45;;;1.90;99.90;;;;;;4970136;28;20490;-69
2020/12/30 09:27:33;;;;;;;3.45;2.30;;;1.80;99.90;;;;;;4973930;28;20208;-69
2020/12/30 09:30:16;;;;;;;1.90;1.60;;;1.80;99.90;;;;;;4974934;28;20275;-69
2020/12/30 09:32:43;;;;;;;7.25;2.80;;;1.80;99.90;;;;;;4970572;28;20223;-69
2020/12/30 09:35:14;;;;;;;2.85;2.20;;;1.80;99.90;;;;;;4974506;28;20217;-68
2020/12/30 09:37:41;;;;;;;3.20;1.92;;;1.80;99.90;;;;;;4977459;28;20684;-68
2020/12/30 09:40:12;;;;;;;2.00;1.70;;;1.80;99.90;;;;;;4968430;28;20542;-68
2020/12/30 09:42:39;;;;;;;5.40;2.42;;;1.80;99.90;;;;;;4970531;28;20254;-69
2020/12/30 09:45:11;;;;;;;7.18;2.53;;;1.80;99.90;;;;;;4975639;28;20195;-69
2020/12/30 09:47:38;;;;;;;6.13;2.97;;;1.80;99.90;;;;;;4969977;28;20212;-68
2020/12/30 09:50:05;;;;;;;3.20;2.30;;;1.80;99.90;;;;;;4974485;28;20619;-69
2020/12/30 09:52:39;;;;;;;5.78;3.20;;;1.80;99.90;;;;;;4971851;28;20203;-69
2020/12/30 09:55:06;;;;;;;2.97;1.70;;;1.80;99.90;;;;;;4976827;28;20704;-69
2020/12/30 09:57:32;;;;;;;2.13;1.65;;;1.80;99.90;;;;;;4975556;28;20231;-69
2020/12/30 09:59:59;;;;;;;1.30;1.20;;;1.80;99.90;;;;;;4968773;28;20192;-69
2020/12/30 10:02:28;;;;;;;1.73;1.30;;;1.80;99.90;;;;;;4974064;28;20286;-70
2020/12/30 10:04:54;;;;;;;1.83;1.55;;;1.90;99.90;;;;;;4973095;28;20203;-69
2020/12/30 10:07:19;;;;;;;6.78;2.65;;;1.80;99.90;;;;;;4978581;28;20195;-70
2020/12/30 10:09:45;;;;;;;17.02;6.07;;;1.80;99.90;;;;;;4973763;28;20259;-69
2020/12/30 10:12:11;;;;;;;85.30;41.97;;;1.80;99.90;;;;;;4966993;28;20200;-69
2020/12/30 10:14:36;;;;;;;54.75;30.90;;;1.80;99.90;;;;;;4970530;28;20203;-69
2020/12/30 10:17:02;;;;;;;25.27;15.13;;;1.80;99.90;;;;;;4975583;28;20202;-69
2020/12/30 10:19:28;;;;;;;58.53;29.63;;;1.80;99.90;;;;;;4968033;28;20204;-70
2020/12/30 10:21:53;;;;;;;8.45;5.50;;;1.80;99.90;;;;;;4968532;28;20753;-70
2020/12/30 10:24:19;;;;;;;9.88;6.55;;;1.80;99.90;;;;;;4972754;28;20698;-68
2020/12/30 10:26:45;;;;;;;11.18;7.13;;;1.80;99.90;;;;;;4969793;28;20207;-69
2020/12/30 10:29:11;;;;;;;5.55;3.75;;;1.90;99.90;;;;;;4973330;28;21414;-69
2020/12/30 10:31:36;;;;;;;4.18;3.30;;;1.90;99.90;;;;;;4973538;28;20203;-69
2020/12/30 10:34:02;;;;;;;7.93;5.35;;;1.90;99.90;;;;;;4977068;28;20207;-69
2020/12/30 10:36:32;;;;;;;17.88;10.07;;;1.90;99.90;;;;;;4976039;28;20224;-68
2020/12/30 10:39:01;;;;;;;3.80;3.10;;;1.90;99.90;;;;;;4978626;28;20224;-68
2020/12/30 10:41:27;;;;;;;5.40;3.75;;;1.90;99.90;;;;;;4978187;28;20851;-69
2020/12/30 10:43:53;;;;;;;8.30;5.63;;;1.90;99.90;;;;;;4978401;28;20641;-69
2020/12/30 10:46:20;;;;;;;11.90;6.28;;;1.90;99.90;;;;;;4977104;28;20204;-70
2020/12/30 10:48:47;;;;;;;10.50;5.38;;;2.00;99.90;;;;;;4972961;28;20242;-70
2020/12/30 10:51:14;;;;;;;14.60;8.70;;;2.00;99.90;;;;;;4979026;28;20198;-70
2020/12/30 10:53:39;;;;;;;30.52;18.25;;;2.00;99.90;;;;;;4973228;28;20212;-69
2020/12/30 10:56:07;;;;;;;15.07;9.13;;;2.00;99.90;;;;;;4973897;28;20238;-69
2020/12/30 10:58:33;;;;;;;16.17;10.77;;;2.00;99.90;;;;;;4976877;28;20199;-69
2020/12/30 11:00:59;;;;;;;7.95;5.07;;;2.00;99.90;;;;;;4982823;28;20650;-69
2020/12/30 11:03:24;;;;;;;11.52;7.00;;;2.00;99.90;;;;;;4975724;28;20238;-70
2020/12/30 11:05:50;;;;;;;16.20;9.63;;;2.00;99.90;;;;;;4976630;28;20207;-69
2020/12/30 11:08:16;;;;;;;125.78;46.40;;;2.00;99.90;;;;;;4973565;28;20259;-70
2020/12/30 11:10:41;;;;;;;55.08;26.60;;;2.10;99.90;;;;;;4973782;28;20200;-70
2020/12/30 11:13:07;;;;;;;16.90;11.48;;;2.00;99.90;;;;;;4975263;28;20702;-70
2020/12/30 11:15:35;;;;;;;24.35;13.63;;;2.10;99.90;;;;;;4971648;28;20199;-70
2020/12/30 11:18:04;;;;;;;18.25;11.00;;;2.10;99.90;;;;;;4975199;28;20188;-69
2020/12/30 11:20:30;;;;;;;12.00;7.78;;;2.10;99.90;;;;;;4973366;28;20219;-69
2020/12/30 11:22:55;;;;;;;9.80;6.72;;;2.00;99.90;;;;;;4970673;28;20204;-70
2020/12/30 11:25:21;;;;;;;6.05;4.45;;;2.10;99.90;;;;;;4975904;28;20207;-69
2020/12/30 11:27:47;;;;;;;5.75;4.45;;;2.10;99.90;;;;;;4969862;28;20199;-69
2020/12/30 11:30:14;;;;;;;6.43;4.03;;;2.10;99.90;;;;;;4968397;28;20200;-69
2020/12/30 11:32:39;;;;;;;2.80;2.13;;;2.10;99.90;;;;;;4973979;28;20286;-69
2020/12/30 11:35:05;;;;;;;2.72;2.15;;;2.10;99.90;;;;;;4974022;28;20284;-69
2020/12/30 11:37:31;;;;;;;7.85;5.60;;;2.00;99.90;;;;;;4972782;28;20231;-70
2020/12/30 11:39:57;;;;;;;9.13;5.95;;;2.00;99.90;;;;;;4971399;28;20227;-69
2020/12/30 11:42:23;;;;;;;5.65;3.80;;;1.90;99.90;;;;;;4973926;28;20204;-69
2020/12/30 11:44:48;;;;;;;3.47;2.50;;;1.90;99.90;;;;;;4975206;28;20219;-69
2020/12/30 11:47:14;;;;;;;4.72;3.28;;;1.90;99.90;;;;;;4983900;28;20195;-69
2020/12/30 11:49:39;;;;;;;23.27;8.13;;;1.80;99.90;;;;;;4973578;28;20199;-69
2020/12/30 11:52:05;;;;;;;13.70;4.50;;;1.80;99.90;;;;;;4973515;28;20287;-69
2020/12/30 11:54:31;;;;;;;11.02;5.05;;;1.80;99.90;;;;;;4974258;28;20302;-69
2020/12/30 11:56:57;;;;;;;7.38;3.95;;;1.70;99.90;;;;;;4976875;28;20232;-69
2020/12/30 11:59:22;;;;;;;24.40;12.93;;;1.60;99.90;;;;;;4976036;28;20621;-69
2020/12/30 12:01:48;;;;;;;19.05;10.45;;;1.60;99.90;;;;;;4974059;28;20255;-69
2020/12/30 12:04:14;;;;;;;9.55;5.57;;;1.60;99.90;;;;;;4974624;28;20290;-69
2020/12/30 12:06:39;;;;;;;17.60;9.25;;;1.60;99.90;;;;;;4975211;28;20214;-70
2020/12/30 12:09:05;;;;;;;7.05;3.97;;;1.50;99.90;;;;;;4982191;28;20579;-69
2020/12/30 12:11:31;;;;;;;5.85;4.32;;;1.50;99.90;;;;;;4972396;28;20816;-69
2020/12/30 12:13:56;;;;;;;11.13;6.82;;;1.40;99.90;;;;;;4974277;28;20235;-70
2020/12/30 12:16:22;;;;;;;8.20;5.40;;;1.40;99.90;;;;;;4977532;28;20203;-70
2020/12/30 12:18:48;;;;;;;7.45;4.22;;;1.50;99.90;;;;;;4975793;28;20785;-69
2020/12/30 12:21:13;;;;;;;4.55;2.95;;;1.50;99.90;;;;;;4972911;28;20791;-69
2020/12/30 12:23:39;;;;;;;5.80;3.67;;;1.40;99.90;;;;;;4979002;28;20196;-69
2020/12/30 12:26:05;;;;;;;7.32;2.00;;;1.50;99.90;;;;;;4969809;28;20199;-69
2020/12/30 12:28:54;;;;;;;3.75;2.35;;;1.50;99.90;;;;;;4974436;28;20206;-70
2020/12/30 12:31:19;;;;;;;5.30;2.13;;;1.50;99.90;;;;;;4952637;28;20216;-70
2020/12/30 12:33:45;;;;;;;5.63;3.75;;;1.50;99.90;;;;;;4972969;28;20211;-71
2020/12/30 12:36:14;;;;;;;12.32;6.75;;;1.50;99.90;;;;;;4979690;28;20199;-71
2020/12/30 12:38:40;;;;;;;14.25;7.93;;;1.50;99.90;;;;;;4973098;28;20195;-71
2020/12/30 12:41:06;;;;;;;14.85;8.45;;;1.50;99.90;;;;;;4979952;28;20528;-70
2020/12/30 12:43:32;;;;;;;18.15;10.77;;;1.50;99.90;;;;;;4978661;28;20208;-71
2020/12/30 12:45:57;;;;;;;10.75;6.72;;;1.50;99.90;;;;;;4978327;28;20247;-70
2020/12/30 12:48:23;;;;;;;4.18;2.75;;;1.50;99.90;;;;;;4973875;28;20563;-70
2020/12/30 12:50:49;;;;;;;5.47;4.57;;;1.50;99.90;;;;;;4989797;28;20824;-70
2020/12/30 12:53:15;;;;;;;6.22;4.80;;;1.50;99.90;;;;;;4978315;28;20203;-70
2020/12/30 12:55:40;;;;;;;1.30;1.20;;;1.50;99.90;;;;;;4975949;28;20250;-70
2020/12/30 12:58:06;;;;;;;4.03;2.53;;;1.50;99.90;;;;;;4972318;28;21017;-70